createdAt,value
2018-06-01T00:01:24.116Z,95275.84
2018-06-01T00:03:51.885Z,95278.89
2018-06-01T00:06:19.885Z,95276.63
2018-06-01T00:08:46.608Z,95276.71
2018-06-01T00:11:15.423Z,95277.83
2018-06-01T00:13:42.220Z,95282.63
2018-06-01T00:16:08.776Z,95280.84
2018-06-01T00:18:35.490Z,95282.98
2018-06-01T00:21:02.756Z,95280.55
2018-06-01T00:23:31.175Z,95278.30
2018-06-01T00:25:57.826Z,95273.98
2018-06-01T00:28:24.536Z,95274.56
2018-06-01T00:30:51.153Z,95273.25
2018-06-01T00:33:17.744Z,95271.86
2018-06-01T00:35:44.420Z,95274.05
2018-06-01T00:38:11.116Z,95273.63
2018-06-01T00:40:37.928Z,95277.31
2018-06-01T00:43:04.848Z,95277.48
2018-06-01T00:45:32.217Z,95274.78
2018-06-01T00:47:59.185Z,95275.05
2018-06-01T00:50:25.990Z,95276.47
2018-06-01T00:52:53.758Z,95277.34
2018-06-01T00:55:25.479Z,95285.00
2018-06-01T00:57:52.173Z,95278.88
2018-06-01T01:00:20.341Z,95284.92
2018-06-01T01:02:47.020Z,95285.47
2018-06-01T01:05:13.865Z,95280.93
2018-06-01T01:07:40.574Z,95278.92
2018-06-01T01:10:07.383Z,95282.84
2018-06-01T01:12:33.961Z,95280.16
2018-06-01T01:15:00.673Z,95277.52
2018-06-01T01:17:27.370Z,95279.61
2018-06-01T01:19:53.994Z,95271.59
2018-06-01T01:22:20.784Z,95279.61
2018-06-01T01:24:47.517Z,95283.55
2018-06-01T01:27:15.183Z,95288.69
2018-06-01T01:29:43.077Z,95289.82
2018-06-01T01:32:10.250Z,95287.62
2018-06-01T01:34:36.911Z,95284.84
2018-06-01T01:37:03.821Z,95280.07
2018-06-01T01:39:30.712Z,95279.20
2018-06-01T01:41:57.533Z,95277.09
2018-06-01T01:44:24.270Z,95284.59
2018-06-01T01:46:50.834Z,95287.73
2018-06-01T01:49:17.571Z,95285.16
2018-06-01T01:51:44.343Z,95290.78
2018-06-01T01:54:11.137Z,95297.27
2018-06-01T01:56:37.786Z,95298.50
2018-06-01T01:59:04.529Z,95302.04
2018-06-01T02:01:31.326Z,95294.53
2018-06-01T02:03:58.121Z,95294.08
2018-06-01T02:06:25.010Z,95299.41
2018-06-01T02:08:51.815Z,95300.22
2018-06-01T02:11:18.433Z,95300.98
2018-06-01T02:13:45.198Z,95299.67
2018-06-01T02:16:13.980Z,95298.50
2018-06-01T02:18:40.610Z,95307.92
2018-06-01T02:21:07.493Z,95312.55
2018-06-01T02:23:34.221Z,95318.71
2018-06-01T02:26:01.447Z,95311.09
2018-06-01T02:28:28.399Z,95322.38
2018-06-01T02:30:56.214Z,95321.83
2018-06-01T02:33:23.557Z,95320.55
2018-06-01T02:35:53.345Z,95322.94
2018-06-01T02:38:20.097Z,95319.63
2018-06-01T02:40:47.558Z,95318.91
2018-06-01T02:43:14.208Z,95315.88
2018-06-01T02:45:41.111Z,95324.78
2018-06-01T02:48:07.916Z,95328.28
2018-06-01T02:50:34.653Z,95326.37
2018-06-01T02:53:02.326Z,95325.89
2018-06-01T02:55:33.651Z,95317.91
2018-06-01T02:58:07.311Z,95321.19
2018-06-01T03:00:37.122Z,95326.83
2018-06-01T03:03:07.078Z,95328.28
2018-06-01T03:05:33.892Z,95329.81
2018-06-01T03:08:00.685Z,95328.95
2018-06-01T03:10:27.354Z,95336.09
2018-06-01T03:12:54.150Z,95340.72
2018-06-01T03:15:21.743Z,95333.98
2018-06-01T03:17:48.679Z,95341.92
2018-06-01T03:20:15.658Z,95343.14
2018-06-01T03:22:42.577Z,95349.73
2018-06-01T03:25:10.939Z,95345.06
2018-06-01T03:27:42.311Z,95343.69
2018-06-01T03:30:13.796Z,95345.51
2018-06-01T03:32:41.101Z,95336.36
2018-06-01T03:35:08.726Z,95345.27
2018-06-01T03:37:36.617Z,95343.81
2018-06-01T03:40:04.752Z,95351.86
2018-06-01T03:42:34.670Z,95353.97
2018-06-01T03:47:52.143Z,95363.17
2018-06-01T03:50:21.340Z,95366.63
2018-06-01T03:52:53.277Z,95370.12
2018-06-01T03:55:20.139Z,95362.72
2018-06-01T03:57:46.930Z,95363.94
2018-06-01T04:00:13.744Z,95365.88
2018-06-01T04:02:40.583Z,95367.00
2018-06-01T04:05:07.290Z,95365.03
2018-06-01T04:07:33.880Z,95369.03
2018-06-01T04:10:00.429Z,95370.14
2018-06-01T04:12:26.969Z,95371.33
2018-06-01T04:14:53.761Z,95371.94
2018-06-01T04:17:21.383Z,95376.56
2018-06-01T04:19:48.277Z,95373.31
2018-06-01T04:22:14.911Z,95381.59
2018-06-01T04:24:43.308Z,95383.57
2018-06-01T04:27:12.573Z,95380.47
2018-06-01T04:29:39.541Z,95383.20
2018-06-01T04:32:07.557Z,95392.45
2018-06-01T04:34:34.966Z,95396.41
2018-06-01T04:37:02.924Z,95391.72
2018-06-01T04:39:29.957Z,95395.66
2018-06-01T04:44:29.906Z,95398.28
2018-06-01T04:46:57.498Z,95398.83
2018-06-01T04:49:25.341Z,95401.23
2018-06-01T04:51:52.598Z,95408.69
2018-06-01T04:54:19.408Z,95408.32
2018-06-01T04:56:46.682Z,95406.55
2018-06-01T04:59:13.353Z,95409.58
2018-06-01T05:01:40.006Z,95413.10
2018-06-01T05:04:07.768Z,95421.80
2018-06-01T05:06:34.498Z,95421.84
2018-06-01T05:09:01.643Z,95426.03
2018-06-01T05:11:28.637Z,95430.13
2018-06-01T05:13:55.589Z,95420.59
2018-06-01T05:16:22.325Z,95425.73
2018-06-01T05:18:49.634Z,95427.58
2018-06-01T05:21:16.441Z,95427.48
2018-06-01T05:23:43.557Z,95433.92
2018-06-01T05:26:10.392Z,95427.16
2018-06-01T05:28:37.065Z,95430.02
2018-06-01T05:31:03.873Z,95435.05
2018-06-01T05:33:30.513Z,95424.38
2018-06-01T05:35:57.450Z,95430.36
2018-06-01T05:38:24.237Z,95434.30
2018-06-01T05:40:50.874Z,95437.16
2018-06-01T05:43:17.583Z,95435.60
2018-06-01T05:45:44.181Z,95435.92
2018-06-01T05:48:10.797Z,95440.94
2018-06-01T05:50:37.586Z,95439.73
2018-06-01T05:53:04.147Z,95436.37
2018-06-01T05:55:30.841Z,95441.45
2018-06-01T05:57:57.469Z,95444.97
2018-06-01T06:00:24.610Z,95447.60
2018-06-01T06:02:51.285Z,95446.89
2018-06-01T06:05:18.161Z,95445.22
2018-06-01T06:07:44.908Z,95451.91
2018-06-01T06:10:11.826Z,95448.91
2018-06-01T06:12:38.497Z,95452.61
2018-06-01T06:15:05.164Z,95452.72
2018-06-01T06:17:31.829Z,95453.30
2018-06-01T06:19:58.429Z,95454.63
2018-06-01T06:22:25.090Z,95448.01
2018-06-01T06:24:54.125Z,95445.14
2018-06-01T06:27:20.978Z,95446.06
2018-06-01T06:29:47.685Z,95451.98
2018-06-01T06:32:14.410Z,95445.27
2018-06-01T06:34:41.013Z,95443.77
2018-06-01T06:37:07.589Z,95440.19
2018-06-01T06:39:34.381Z,95444.23
2018-06-01T06:42:01.034Z,95436.59
2018-06-01T06:44:27.793Z,95437.95
2018-06-01T06:46:54.730Z,95433.09
2018-06-01T06:49:22.383Z,95441.70
2018-06-01T06:51:49.609Z,95440.73
2018-06-01T06:54:16.762Z,95435.17
2018-06-01T06:56:43.652Z,95433.92
2018-06-01T06:59:10.640Z,95433.28
2018-06-01T07:01:37.716Z,95431.22
2018-06-01T07:04:04.858Z,95425.33
2018-06-01T07:06:31.659Z,95427.66
2018-06-01T07:08:58.466Z,95426.50
2018-06-01T07:11:25.546Z,95429.31
2018-06-01T07:13:52.410Z,95431.92
2018-06-01T07:16:19.671Z,95425.50
2018-06-01T07:18:46.421Z,95421.80
2018-06-01T07:21:13.850Z,95425.70
2018-06-01T07:23:40.598Z,95425.34
2018-06-01T07:26:07.719Z,95425.59
2018-06-01T07:28:34.461Z,95425.94
2018-06-01T07:31:01.379Z,95421.74
2018-06-01T07:33:28.378Z,95420.32
2018-06-01T07:35:55.187Z,95419.11
2018-06-01T07:38:22.758Z,95415.23
2018-06-01T07:40:49.718Z,95426.43
2018-06-01T07:43:16.512Z,95417.31
2018-06-01T07:45:43.110Z,95418.78
2018-06-01T07:48:09.730Z,95415.89
2018-06-01T07:50:36.452Z,95413.19
2018-06-01T07:53:03.855Z,95412.09
2018-06-01T07:55:30.484Z,95408.43
2018-06-01T07:57:57.314Z,95411.67
2018-06-01T08:00:23.789Z,95410.13
2018-06-01T08:02:50.467Z,95414.10
2018-06-01T08:05:17.101Z,95408.34
2018-06-01T08:07:43.710Z,95406.36
2018-06-01T08:10:10.342Z,95400.16
2018-06-01T08:12:37.113Z,95403.83
2018-06-01T08:15:03.615Z,95405.81
2018-06-01T08:17:30.125Z,95409.20
2018-06-01T08:19:56.822Z,95408.03
2018-06-01T08:22:23.385Z,95400.84
2018-06-01T08:24:50.034Z,95403.98
2018-06-01T08:27:16.521Z,95394.69
2018-06-01T08:29:44.190Z,95397.54
2018-06-01T08:32:10.876Z,95402.92
2018-06-01T08:34:37.676Z,95395.78
2018-06-01T08:37:04.197Z,95398.41
2018-06-01T08:39:31.009Z,95396.26
2018-06-01T08:41:57.609Z,95397.45
2018-06-01T08:44:24.125Z,95400.96
2018-06-01T08:46:51.055Z,95394.41
2018-06-01T08:49:17.643Z,95398.13
2018-06-01T08:51:44.331Z,95394.90
2018-06-01T08:54:10.966Z,95393.06
2018-06-01T08:56:37.694Z,95399.70
2018-06-01T08:59:04.527Z,95396.78
2018-06-01T09:01:31.333Z,95399.84
2018-06-01T09:26:19.005Z,95384.03
2018-06-01T09:28:45.580Z,95372.52
2018-06-01T09:31:12.228Z,95377.56
2018-06-01T09:33:39.108Z,95370.30
2018-06-01T09:36:06.063Z,95372.66
2018-06-01T09:38:32.860Z,95378.22
2018-06-01T09:40:59.551Z,95370.42
2018-06-01T09:43:26.270Z,95368.09
2018-06-01T09:45:52.895Z,95371.48
2018-06-01T09:48:19.770Z,95366.11
2018-06-01T09:50:46.509Z,95365.73
2018-06-01T09:53:13.079Z,95368.16
2018-06-01T09:55:39.948Z,95357.28
2018-06-01T09:58:07.037Z,95365.39
2018-06-01T10:00:39.781Z,95360.95
2018-06-01T10:03:06.383Z,95359.02
2018-06-01T10:05:33.004Z,95363.47
2018-06-01T10:07:59.934Z,95354.83
2018-06-01T10:10:32.523Z,95366.61
2018-06-01T10:12:59.288Z,95366.55
2018-06-01T10:15:25.820Z,95356.53
2018-06-01T10:17:52.569Z,95357.65
2018-06-01T10:20:19.486Z,95350.84
2018-06-01T10:22:46.284Z,95354.73
2018-06-01T10:25:13.112Z,95358.17
2018-06-01T10:27:39.728Z,95354.97
2018-06-01T10:30:06.280Z,95358.80
2018-06-01T10:32:32.969Z,95352.84
2018-06-01T10:34:59.575Z,95356.55
2018-06-01T10:37:28.447Z,95349.80
2018-06-01T10:39:55.526Z,95344.25
2018-06-01T10:42:22.277Z,95340.11
2018-06-01T10:44:48.962Z,95342.05
2018-06-01T10:47:15.639Z,95339.14
2018-06-01T10:49:42.813Z,95338.16
2018-06-01T10:52:09.713Z,95340.45
2018-06-01T10:54:36.265Z,95336.75
2018-06-01T10:57:03.181Z,95327.43
2018-06-01T10:59:29.936Z,95333.00
2018-06-01T11:03:49.040Z,95338.58
2018-06-01T11:06:15.847Z,95331.09
2018-06-01T11:08:42.665Z,95335.53
2018-06-01T11:11:09.232Z,95326.84
2018-06-01T11:13:36.041Z,95328.33
2018-06-01T11:16:02.679Z,95336.76
2018-06-01T11:18:29.395Z,95323.88
2018-06-01T11:20:56.176Z,95312.77
2018-06-01T11:23:22.801Z,95307.63
2018-06-01T11:25:49.481Z,95318.17
2018-06-01T11:28:16.434Z,95320.75
2018-06-01T11:30:43.240Z,95312.52
2018-06-01T11:33:09.951Z,95312.37
2018-06-01T11:35:36.753Z,95307.72
2018-06-01T11:38:03.450Z,95308.98
2018-06-01T11:40:30.178Z,95306.13
2018-06-01T11:42:56.976Z,95312.99
2018-06-01T11:45:23.615Z,95307.84
2018-06-01T11:47:50.369Z,95309.65
2018-06-01T11:50:17.097Z,95301.61
2018-06-01T11:52:51.106Z,95300.02
2018-06-01T11:55:17.744Z,95292.16
2018-06-01T11:57:44.415Z,95294.78
2018-06-01T12:00:11.016Z,95292.25
2018-06-01T12:02:37.960Z,95288.69
2018-06-01T12:05:04.649Z,95295.85
2018-06-01T12:07:31.410Z,95277.92
2018-06-01T12:09:57.948Z,95284.09
2018-06-01T12:12:24.706Z,95267.95
2018-06-01T12:14:51.330Z,95277.98
2018-06-01T12:17:18.014Z,95278.52
2018-06-01T12:19:44.544Z,95279.59
2018-06-01T12:22:11.373Z,95270.89
2018-06-01T12:24:38.320Z,95268.23
2018-06-01T12:27:05.074Z,95273.16
2018-06-01T12:29:32.063Z,95267.55
2018-06-01T12:31:58.819Z,95267.96
2018-06-01T12:34:25.583Z,95268.20
2018-06-01T12:36:52.646Z,95267.53
2018-06-01T12:39:19.419Z,95260.59
2018-06-01T12:41:46.847Z,95266.92
2018-06-01T12:44:13.664Z,95259.71
2018-06-01T12:46:40.353Z,95260.31
2018-06-01T12:49:07.384Z,95255.13
2018-06-01T12:51:34.061Z,95252.55
2018-06-01T12:54:00.881Z,95250.72
2018-06-01T12:56:27.811Z,95252.73
2018-06-01T12:58:54.965Z,95249.08
2018-06-01T13:01:22.069Z,95246.53
2018-06-01T13:03:49.032Z,95248.12
2018-06-01T13:06:15.862Z,95238.61
2018-06-01T13:08:42.773Z,95230.66
2018-06-01T13:11:09.392Z,95232.28
2018-06-01T13:13:35.887Z,95236.20
2018-06-01T13:16:02.501Z,95234.95
2018-06-01T13:18:29.009Z,95220.43
2018-06-01T13:20:55.595Z,95221.69
2018-06-01T13:23:22.227Z,95224.72
2018-06-01T13:25:48.736Z,95222.89
2018-06-01T13:28:15.407Z,95222.36
2018-06-01T13:30:42.160Z,95226.73
2018-06-01T13:33:08.920Z,95227.30
2018-06-01T13:35:35.601Z,95225.95
2018-06-01T13:38:02.270Z,95222.95
2018-06-01T13:40:29.103Z,95225.92
2018-06-01T13:42:55.688Z,95220.61
2018-06-01T13:45:22.370Z,95214.19
2018-06-01T13:47:49.259Z,95212.30
2018-06-01T13:50:15.885Z,95207.91
2018-06-01T13:52:42.954Z,95214.80
2018-06-01T13:55:09.733Z,95210.16
2018-06-01T13:57:36.349Z,95208.38
2018-06-01T14:09:08.673Z,95206.05
2018-06-01T14:11:35.282Z,95203.20
2018-06-01T14:14:02.182Z,95211.23
2018-06-01T14:16:28.845Z,95208.47
2018-06-01T14:18:55.537Z,95199.95
2018-06-01T14:21:22.561Z,95200.91
2018-06-01T14:23:49.535Z,95212.03
2018-06-01T14:26:16.353Z,95204.95
2018-06-01T14:31:24.347Z,95202.54
2018-06-01T14:33:51.069Z,95198.52
2018-06-01T14:36:17.713Z,95197.34
2018-06-01T14:38:44.661Z,95192.42
2018-06-01T14:41:11.741Z,95199.33
2018-06-01T14:43:38.460Z,95200.48
2018-06-01T14:46:05.267Z,95203.81
2018-06-01T14:48:32.067Z,95203.54
2018-06-01T14:50:58.910Z,95207.72
2018-06-01T14:53:26.001Z,95204.29
2018-06-01T14:55:52.545Z,95203.17
2018-06-01T14:58:19.104Z,95199.09
2018-06-01T15:00:45.768Z,95199.56
2018-06-01T15:03:12.403Z,95200.22
2018-06-01T15:05:38.974Z,95213.00
2018-06-01T15:08:05.561Z,95207.88
2018-06-01T15:10:32.069Z,95197.70
2018-06-01T15:12:58.903Z,95191.40
2018-06-01T15:15:25.673Z,95198.17
2018-06-01T15:17:52.417Z,95192.20
2018-06-01T15:20:19.004Z,95195.91
2018-06-01T15:22:45.642Z,95198.63
2018-06-01T15:25:12.409Z,95202.59
2018-06-01T15:27:39.081Z,95204.12
2018-06-01T15:30:05.799Z,95207.42
2018-06-01T15:32:33.821Z,95194.70
2018-06-01T15:35:01.042Z,95205.27
2018-06-01T15:37:27.648Z,95207.69
2018-06-01T15:39:54.538Z,95203.72
2018-06-01T15:42:21.244Z,95203.45
2018-06-01T15:44:47.945Z,95200.94
2018-06-01T15:47:18.095Z,95202.50
2018-06-01T15:49:45.188Z,95198.08
2018-06-01T15:52:15.547Z,95193.34
2018-06-01T15:54:43.061Z,95196.48
2018-06-01T15:57:09.983Z,95197.38
2018-06-01T15:59:36.822Z,95208.80
2018-06-01T16:02:05.392Z,95200.99
2018-06-01T16:04:32.273Z,95200.23
2018-06-01T16:06:59.154Z,95201.30
2018-06-01T16:09:25.831Z,95204.20
2018-06-01T16:11:52.505Z,95208.41
2018-06-01T16:14:19.725Z,95206.89
2018-06-01T16:16:47.040Z,95210.43
2018-06-01T16:19:13.916Z,95213.91
2018-06-01T16:21:40.801Z,95209.30
2018-06-01T16:24:07.432Z,95211.31
2018-06-01T16:26:34.011Z,95216.13
2018-06-01T16:29:00.661Z,95208.27
2018-06-01T16:31:27.412Z,95207.50
2018-06-01T16:33:54.241Z,95211.73
2018-06-01T16:36:21.077Z,95222.22
2018-06-01T16:38:47.744Z,95227.53
2018-06-01T16:41:15.271Z,95215.02
2018-06-01T16:43:41.841Z,95217.91
2018-06-01T16:46:08.416Z,95221.24
2018-06-01T16:48:34.928Z,95234.11
2018-06-01T16:51:01.505Z,95221.78
2018-06-01T16:53:28.228Z,95226.25
2018-06-01T16:55:54.891Z,95228.69
2018-06-01T16:58:21.733Z,95237.09
2018-06-01T17:00:48.245Z,95234.75
2018-06-01T17:03:14.866Z,95239.25
2018-06-01T17:05:41.665Z,95238.17
2018-06-01T17:08:08.655Z,95241.14
2018-06-01T17:10:35.160Z,95237.64
2018-06-01T17:13:01.854Z,95246.58
2018-06-01T17:15:29.771Z,95245.11
2018-06-01T17:20:48.645Z,95237.07
2018-06-01T17:23:15.403Z,95234.45
2018-06-01T17:25:42.159Z,95238.40
2018-06-01T17:28:08.740Z,95234.11
2018-06-01T17:30:35.389Z,95239.13
2018-06-01T17:33:01.917Z,95250.02
2018-06-01T17:35:28.660Z,95243.38
2018-06-01T17:37:55.340Z,95251.43
2018-06-01T17:40:22.012Z,95252.59
2018-06-01T17:42:48.613Z,95260.89
2018-06-01T17:45:15.248Z,95260.62
2018-06-01T17:47:41.745Z,95259.50
2018-06-01T17:50:08.367Z,95267.05
2018-06-01T17:52:35.058Z,95268.11
2018-06-01T17:55:01.749Z,95266.88
2018-06-01T17:57:28.350Z,95274.51
2018-06-01T17:59:55.045Z,95274.28
2018-06-01T18:02:21.789Z,95279.45
2018-06-01T18:04:50.233Z,95279.38
2018-06-01T18:07:17.108Z,95280.68
2018-06-01T18:09:43.656Z,95283.08
2018-06-01T18:12:10.314Z,95282.21
2018-06-01T18:14:37.113Z,95281.88
2018-06-01T18:17:03.752Z,95277.96
2018-06-01T18:19:30.440Z,95283.13
2018-06-01T18:21:57.525Z,95283.05
2018-06-01T18:24:24.130Z,95294.64
2018-06-01T18:26:50.627Z,95295.98
2018-06-01T18:29:17.406Z,95297.03
2018-06-01T18:31:44.187Z,95302.75
2018-06-01T18:34:10.738Z,95301.64
2018-06-01T18:36:37.263Z,95306.89
2018-06-01T18:39:04.878Z,95306.08
2018-06-01T18:41:31.480Z,95312.67
2018-06-01T18:43:58.651Z,95313.57
2018-06-01T18:46:26.078Z,95316.77
2018-06-01T18:48:52.677Z,95311.95
2018-06-01T18:51:19.213Z,95311.48
2018-06-01T18:53:45.915Z,95320.96
2018-06-01T18:56:12.531Z,95316.80
2018-06-01T18:58:39.213Z,95323.16
2018-06-01T19:01:05.999Z,95319.94
2018-06-01T19:03:32.520Z,95329.13
2018-06-01T19:05:59.529Z,95327.20
2018-06-01T19:08:26.026Z,95328.20
2018-06-01T19:10:52.644Z,95334.53
2018-06-01T19:13:19.196Z,95333.03
2018-06-01T19:15:46.084Z,95336.81
2018-06-01T19:18:12.549Z,95333.87
2018-06-01T19:20:39.083Z,95344.60
2018-06-01T19:23:05.562Z,95339.52
2018-06-01T19:25:32.225Z,95342.85
2018-06-01T19:27:58.833Z,95347.44
2018-06-01T19:30:25.447Z,95353.11
2018-06-01T19:32:51.970Z,95356.25
2018-06-01T19:35:18.516Z,95356.95
2018-06-01T19:37:45.101Z,95356.62
2018-06-01T19:40:11.736Z,95358.03
2018-06-01T19:42:38.616Z,95364.35
2018-06-01T19:45:05.376Z,95363.02
2018-06-01T19:47:32.111Z,95365.25
2018-06-01T19:49:58.655Z,95364.33
2018-06-01T19:52:25.204Z,95365.75
2018-06-01T19:54:51.794Z,95366.13
2018-06-01T19:57:18.777Z,95370.54
2018-06-01T19:59:45.697Z,95369.56
2018-06-01T20:02:12.358Z,95366.42
2018-06-01T20:04:38.908Z,95363.02
2018-06-01T20:07:05.444Z,95364.27
2018-06-01T20:09:32.218Z,95368.71
2018-06-01T20:11:58.867Z,95364.70
2018-06-01T20:14:25.557Z,95367.37
2018-06-01T20:16:52.137Z,95369.85
2018-06-01T20:19:18.710Z,95369.31
2018-06-01T20:21:45.320Z,95367.45
2018-06-01T20:24:11.896Z,95371.84
2018-06-01T20:26:38.491Z,95373.69
2018-06-01T20:29:05.072Z,95383.34
2018-06-01T20:31:31.653Z,95387.77
2018-06-01T20:33:58.223Z,95385.90
2018-06-01T20:36:24.748Z,95387.90
2018-06-01T20:38:51.362Z,95384.38
2018-06-01T20:41:17.961Z,95385.68
2018-06-01T20:43:44.476Z,95384.61
2018-06-01T20:46:12.364Z,95381.41
2018-06-01T20:48:53.852Z,95385.31
2018-06-01T20:51:20.457Z,95388.69
2018-06-01T20:53:46.972Z,95388.72
2018-06-01T20:56:13.588Z,95390.97
2018-06-01T20:58:40.058Z,95391.09
2018-06-01T21:01:06.711Z,95388.56
2018-06-01T21:03:33.470Z,95392.03
2018-06-01T21:06:00.122Z,95391.47
2018-06-01T21:08:26.664Z,95392.90
2018-06-01T21:10:53.281Z,95389.37
2018-06-01T21:16:12.019Z,95402.69
2018-06-01T21:18:38.737Z,95406.80
2018-06-01T21:24:09.350Z,95414.59
2018-06-01T21:26:36.045Z,95418.98
2018-06-01T21:29:02.592Z,95417.14
2018-06-01T21:31:29.201Z,95413.96
2018-06-01T21:33:55.929Z,95414.37
2018-06-01T21:36:22.534Z,95414.77
2018-06-01T21:38:49.298Z,95421.65
2018-06-01T21:41:15.927Z,95423.20
2018-06-01T21:43:42.421Z,95425.37
2018-06-01T21:46:09.016Z,95424.44
2018-06-01T21:48:35.637Z,95425.25
2018-06-01T21:51:02.237Z,95423.15
2018-06-01T21:53:28.829Z,95428.34
2018-06-01T21:55:55.574Z,95428.67
2018-06-01T21:58:22.229Z,95420.64
2018-06-01T22:00:48.736Z,95431.98
2018-06-01T22:03:15.369Z,95434.17
2018-06-01T22:05:41.826Z,95436.14
2018-06-01T22:08:08.496Z,95432.50
2018-06-01T22:10:35.398Z,95425.88
2018-06-01T22:13:01.949Z,95424.93
2018-06-01T22:15:28.560Z,95426.09
2018-06-01T22:17:55.134Z,95423.84
2018-06-01T22:20:21.802Z,95425.10
2018-06-01T22:22:48.388Z,95424.88
2018-06-01T22:25:15.004Z,95434.22
2018-06-01T22:27:41.671Z,95438.55
2018-06-01T22:30:08.373Z,95434.17
2018-06-01T22:32:34.910Z,95436.34
2018-06-01T22:35:01.481Z,95437.60
2018-06-01T22:37:27.997Z,95438.31
2018-06-01T22:39:54.593Z,95431.41
2018-06-01T22:42:21.119Z,95435.80
2018-06-01T22:44:47.636Z,95429.05
2018-06-01T22:47:14.264Z,95426.81
2018-06-01T22:49:40.913Z,95431.91
2018-06-01T22:52:07.461Z,95427.67
2018-06-01T22:57:07.383Z,95430.77
2018-06-01T22:59:33.954Z,95437.80
2018-06-01T23:02:00.561Z,95450.18
2018-06-01T23:04:27.248Z,95441.73
2018-06-01T23:06:53.868Z,95444.80
2018-06-01T23:09:20.487Z,95446.39
2018-06-01T23:11:47.167Z,95451.89
2018-06-01T23:14:13.898Z,95453.72
2018-06-01T23:16:40.432Z,95454.43
2018-06-01T23:19:06.927Z,95457.90
2018-06-01T23:21:33.565Z,95452.08
2018-06-01T23:24:00.148Z,95444.63
2018-06-01T23:26:26.801Z,95438.33
2018-06-01T23:29:00.280Z,95437.51
2018-06-01T23:31:26.876Z,95434.45
2018-06-01T23:33:53.578Z,95431.52
2018-06-01T23:36:20.046Z,95424.19
2018-06-01T23:38:46.639Z,95426.41
2018-06-01T23:41:13.232Z,95418.86
2018-06-01T23:43:39.707Z,95414.04
2018-06-01T23:46:06.369Z,95412.50
2018-06-01T23:48:33.029Z,95403.41
2018-06-01T23:50:59.659Z,95405.03
2018-06-01T23:53:26.269Z,95399.61
2018-06-01T23:55:52.831Z,95397.73
2018-06-01T23:58:19.317Z,95406.77
